Richmond West, FL

8:54 AM EDT on March 24, 2017 (GMT -0400)
Country Walk | | Change Station

Elev 2 ft 25.63 °N, 80.43 °W | Updated 6 seconds ago

Overcast
Overcast
73.6 °F
Feels Like 76 °F
N
6.5
Wind Variable Wind from ESE
Gusts 7.4 mph

Today
High -- | Low -- °F
--% Chance of Precip.
Yesterday
High -- | Low -- °F
Precip. -- in
Pressure 30.24 in
Visibility 10.0 miles
Clouds Few 2800 ft
Scattered Clouds 3800 ft
Overcast 6000 ft
Heat Index 76 °F
Dew Point 63 °F
Humidity 70%
Rainfall 0.40 in
Snow Depth Not available.
7:21 AM 7:34 PM
Waning Crescent, 15% visible
METAR KTMB 241153Z 08013KT 10SM FEW028 SCT038 OVC060 22/17 A3024 RMK AO2 SLP238 60003 70268 T02220167 10222 20206 53014
Pressure 30.24 in
Visibility 10.0 miles
Clouds Few 2800 ft
Scattered Clouds 3800 ft
Overcast 6000 ft
Heat Index 76 °F
Dew Point 63 °F
Humidity 70%
Rainfall 0.40 in
Snow Depth Not available.
7:21 AM 7:34 PM
Waning Crescent, 15% visible
METAR KTMB 241153Z 08013KT 10SM FEW028 SCT038 OVC060 22/17 A3024 RMK AO2 SLP238 60003 70268 T02220167 10222 20206 53014

Get Severe Weather Alerts

Thanks for signing up!

Be on the lookout for a verification email in your inbox.

You'll start receiving the daily forecast at 8 AM.

×

10-Day Weather Forecast

Almanac

Astronomy

Mar. 24, 2017 Rise Set
Actual Time
Civil Twilight
Nautical Twilight
Astronomical Twilight
Moon
Length of Visible Light
Length of Day
Tomorrow will be .
, % of the Moon is Illuminated

Today's Extremes

State Highs State Lows

Community

WunderPhotos

Upload Photos

1,962,540 photos uploaded!

WunderBlog® & News

Nearby

Air Quality

  Air Quality AQ Index Pollutant
Not available.

Snow Depth

Station Depth Elevation

Earthquake Activity

City Distance Mag. Time & Date
Minimum magnitude displayed is 2.5.

Earthquake Activity

City Distance Mag. Time & Date
Minimum magnitude displayed is 2.5.

Coastal Water Temperatures

Place Temperature

Stations

Nearby Weather Stations

Station Location Temp. Windchill Dew Point Humidity Wind Precip. Elev Updated Type
                   

Watches & Warnings

There are currently no watches in effect.